createdAt,value
2018-04-14T00:00:21.209Z,99.90
2018-04-14T00:02:49.781Z,99.90
2018-04-14T00:05:18.437Z,99.90
2018-04-14T00:07:47.008Z,99.90
2018-04-14T00:10:15.611Z,99.90
2018-04-14T00:12:44.162Z,99.90
2018-04-14T00:15:12.738Z,99.90
2018-04-14T00:17:41.329Z,99.90
2018-04-14T00:20:09.901Z,99.90
2018-04-14T00:22:38.521Z,99.90
2018-04-14T00:25:07.089Z,99.90
2018-04-14T00:27:35.694Z,99.90
2018-04-14T00:30:03.982Z,99.90
2018-04-14T00:32:33.312Z,99.90
2018-04-14T00:35:01.903Z,99.90
2018-04-14T00:37:30.480Z,99.90
2018-04-14T00:39:59.093Z,99.90
2018-04-14T00:42:27.641Z,99.90
2018-04-14T00:44:56.231Z,99.90
2018-04-14T00:47:24.821Z,99.90
2018-04-14T00:49:53.365Z,99.90
2018-04-14T00:52:22.736Z,99.90
2018-04-14T00:54:51.077Z,99.90
2018-04-14T00:57:19.688Z,99.90
2018-04-14T00:59:48.256Z,99.90
2018-04-14T01:02:16.849Z,99.90
2018-04-14T01:04:45.429Z,99.90
2018-04-14T01:07:13.999Z,99.90
2018-04-14T01:09:42.576Z,99.90
2018-04-14T01:12:11.154Z,99.90
2018-04-14T01:14:39.725Z,99.90
2018-04-14T01:17:08.270Z,99.90
2018-04-14T01:19:36.566Z,99.90
2018-04-14T01:22:04.972Z,99.90
2018-04-14T01:24:33.357Z,99.90
2018-04-14T01:27:01.973Z,99.90
2018-04-14T01:29:30.541Z,99.90
2018-04-14T01:31:58.844Z,99.90
2018-04-14T01:34:27.413Z,99.90
2018-04-14T01:36:55.978Z,99.90
2018-04-14T01:39:24.553Z,99.90
2018-04-14T01:41:52.939Z,99.90
2018-04-14T01:44:21.521Z,99.90
2018-04-14T01:46:50.130Z,99.90
2018-04-14T01:49:18.724Z,99.90
2018-04-14T01:51:47.268Z,99.90
2018-04-14T01:54:15.870Z,99.90
2018-04-14T01:56:44.444Z,99.90
2018-04-14T01:59:13.029Z,99.90
2018-04-14T02:01:41.613Z,99.90
2018-04-14T02:04:10.216Z,99.90
2018-04-14T02:06:38.753Z,99.90
2018-04-14T02:09:07.050Z,99.90
2018-04-14T02:11:35.473Z,99.90
2018-04-14T02:14:04.053Z,99.90
2018-04-14T02:16:32.641Z,99.90
2018-04-14T02:19:01.199Z,99.90
2018-04-14T02:21:29.814Z,99.90
2018-04-14T02:23:59.163Z,99.90
2018-04-14T02:26:27.766Z,99.90
2018-04-14T02:28:56.364Z,99.90
2018-04-14T02:31:24.949Z,99.90
2018-04-14T02:33:53.561Z,99.90
2018-04-14T02:36:22.909Z,99.90
2018-04-14T02:38:51.515Z,99.90
2018-04-14T02:41:20.066Z,99.90
2018-04-14T02:43:48.654Z,99.90
2018-04-14T02:46:17.229Z,99.90
2018-04-14T02:48:45.813Z,99.90
2018-04-14T02:51:14.410Z,99.90
2018-04-14T02:53:42.995Z,99.90
2018-04-14T02:56:11.598Z,99.90
2018-04-14T02:58:40.145Z,99.90
2018-04-14T03:01:08.764Z,99.90
2018-04-14T03:03:37.349Z,99.90
2018-04-14T03:06:05.922Z,99.90
2018-04-14T03:08:34.522Z,99.90
2018-04-14T03:11:03.099Z,99.90
2018-04-14T03:13:31.673Z,99.90
2018-04-14T03:16:00.238Z,99.90
2018-04-14T03:18:28.829Z,99.90
2018-04-14T03:20:57.393Z,99.90
2018-04-14T03:23:26.037Z,99.90
2018-04-14T03:25:54.744Z,99.90
2018-04-14T03:28:24.065Z,99.90
2018-04-14T03:30:52.650Z,99.90
2018-04-14T03:33:21.227Z,99.90
2018-04-14T03:35:49.834Z,99.90
2018-04-14T03:38:18.416Z,99.90
2018-04-14T03:40:46.984Z,99.90
2018-04-14T03:43:16.311Z,99.90
2018-04-14T03:45:44.854Z,99.90
2018-04-14T03:48:13.457Z,99.90
2018-04-14T03:50:42.028Z,99.90
2018-04-14T03:53:10.629Z,99.90
2018-04-14T03:55:39.236Z,99.90
2018-04-14T03:58:07.848Z,99.90
2018-04-14T04:00:36.447Z,99.90
2018-04-14T04:03:05.806Z,99.90
2018-04-14T04:05:34.417Z,99.90
2018-04-14T04:08:02.972Z,99.90
2018-04-14T04:10:31.654Z,99.90
2018-04-14T04:13:00.255Z,99.90
2018-04-14T04:15:28.860Z,99.90
2018-04-14T04:17:58.201Z,99.90
2018-04-14T04:23:38.262Z,99.90
2018-04-14T04:26:07.599Z,99.90
2018-04-14T04:28:36.129Z,99.90
2018-04-14T04:31:04.714Z,99.90
2018-04-14T04:33:33.252Z,99.90
2018-04-14T04:36:01.826Z,99.90
2018-04-14T04:38:30.394Z,99.90
2018-04-14T04:40:59.716Z,99.90
2018-04-14T04:43:28.278Z,99.90
2018-04-14T04:45:56.810Z,99.90
2018-04-14T04:48:26.158Z,99.90
2018-04-14T04:50:54.707Z,99.90
2018-04-14T04:53:23.291Z,99.90
2018-04-14T04:55:51.854Z,99.90
2018-04-14T04:58:20.425Z,99.90
2018-04-14T05:00:49.763Z,99.90
2018-04-14T05:03:18.298Z,99.90
2018-04-14T05:05:46.897Z,99.90
2018-04-14T05:08:16.416Z,99.90
2018-04-14T05:10:44.982Z,99.90
2018-04-14T05:13:14.302Z,99.90
2018-04-14T05:15:42.870Z,99.90
2018-04-14T05:18:12.201Z,99.90
2018-04-14T05:20:40.735Z,99.90
2018-04-14T05:23:09.316Z,99.90
2018-04-14T05:25:38.858Z,99.90
2018-04-14T05:28:11.855Z,99.90
2018-04-14T05:30:40.426Z,99.90
2018-04-14T05:33:16.593Z,99.90
2018-04-14T05:35:45.132Z,99.90
2018-04-14T05:38:13.696Z,99.90
2018-04-14T05:40:42.265Z,99.90
2018-04-14T05:43:11.561Z,99.90
2018-04-14T05:45:40.890Z,99.90
2018-04-14T05:48:09.424Z,99.90
2018-04-14T05:50:38.967Z,99.90
2018-04-14T05:53:07.513Z,99.90
2018-04-14T05:55:36.213Z,99.90
2018-04-14T05:58:05.633Z,99.90
2018-04-14T06:00:34.277Z,99.90
2018-04-14T06:03:02.905Z,99.90
2018-04-14T06:05:32.284Z,99.90
2018-04-14T06:08:00.935Z,99.90
2018-04-14T06:10:30.339Z,99.90
2018-04-14T06:12:58.951Z,99.90
2018-04-14T06:15:27.631Z,99.90
2018-04-14T06:17:56.254Z,99.90
2018-04-14T06:20:24.904Z,99.90
2018-04-14T06:22:54.643Z,99.90
2018-04-14T06:25:23.224Z,99.90
2018-04-14T06:27:51.814Z,99.90
2018-04-14T06:30:20.466Z,99.90
2018-04-14T06:32:48.811Z,99.90
2018-04-14T06:35:17.498Z,99.90
2018-04-14T06:37:46.895Z,99.90
2018-04-14T06:40:16.355Z,99.90
2018-04-14T06:42:45.419Z,99.90
2018-04-14T06:45:14.106Z,99.90
2018-04-14T06:47:42.803Z,99.90
2018-04-14T06:50:11.509Z,99.90
2018-04-14T06:52:42.652Z,99.90
2018-04-14T06:55:12.032Z,99.90
2018-04-14T06:57:40.703Z,99.90
2018-04-14T07:00:10.124Z,99.90
2018-04-14T07:02:38.892Z,99.90
2018-04-14T07:05:07.544Z,99.90
2018-04-14T07:07:35.986Z,99.90
2018-04-14T07:10:04.501Z,99.90
2018-04-14T07:12:33.137Z,99.90
2018-04-14T07:15:02.608Z,99.90
2018-04-14T07:17:31.244Z,99.90
2018-04-14T07:20:00.729Z,99.90
2018-04-14T07:22:30.257Z,99.90
2018-04-14T07:24:59.697Z,99.90
2018-04-14T07:27:28.310Z,99.90
2018-04-14T07:29:56.979Z,99.90
2018-04-14T07:32:25.993Z,99.90
2018-04-14T07:34:55.596Z,99.90
2018-04-14T07:37:24.179Z,99.90
2018-04-14T07:39:52.575Z,99.90
2018-04-14T07:42:21.556Z,99.90
2018-04-14T07:44:50.199Z,99.90
2018-04-14T07:47:19.588Z,99.90
2018-04-14T07:49:48.217Z,99.90
2018-04-14T07:52:16.940Z,99.90
2018-04-14T07:54:45.680Z,99.90
2018-04-14T07:57:18.760Z,99.90
2018-04-14T07:59:47.563Z,99.90
2018-04-14T08:02:22.530Z,99.90
2018-04-14T08:04:51.198Z,99.90
2018-04-14T08:07:21.014Z,99.90
2018-04-14T08:09:49.679Z,99.90
2018-04-14T08:12:19.105Z,99.90
2018-04-14T08:14:47.751Z,99.90
2018-04-14T08:17:19.641Z,99.90
2018-04-14T08:19:49.042Z,99.90
2018-04-14T08:22:18.464Z,99.90
2018-04-14T08:24:47.121Z,99.90
2018-04-14T08:27:15.755Z,99.90
2018-04-14T08:29:44.389Z,99.90
2018-04-14T08:32:13.021Z,99.90
2018-04-14T08:34:48.639Z,99.90
2018-04-14T08:37:17.347Z,99.90
2018-04-14T08:39:46.169Z,99.90
2018-04-14T08:42:14.792Z,99.90
2018-04-14T08:44:43.445Z,99.90
2018-04-14T08:47:12.056Z,99.90
2018-04-14T08:49:40.730Z,99.90
2018-04-14T08:52:12.275Z,99.90
2018-04-14T08:54:41.504Z,99.90
2018-04-14T08:57:10.165Z,99.90
2018-04-14T08:59:38.818Z,99.90
2018-04-14T09:02:11.163Z,99.90
2018-04-14T09:04:39.766Z,99.90
2018-04-14T09:07:09.249Z,99.90
2018-04-14T09:09:37.863Z,99.90
2018-04-14T09:12:07.299Z,99.90
2018-04-14T09:14:35.953Z,99.90
2018-04-14T09:17:05.360Z,99.90
2018-04-14T09:19:34.739Z,99.90
2018-04-14T09:22:03.480Z,99.90
2018-04-14T09:24:32.137Z,99.90
2018-04-14T09:27:00.739Z,99.90
2018-04-14T09:29:29.379Z,99.90
2018-04-14T09:31:58.038Z,99.90
2018-04-14T09:34:26.659Z,99.90
2018-04-14T09:36:55.318Z,99.90
2018-04-14T09:39:23.924Z,99.90
2018-04-14T09:41:52.826Z,99.90
2018-04-14T09:44:21.417Z,99.90
2018-04-14T09:46:50.027Z,99.90
2018-04-14T09:49:18.639Z,99.90
2018-04-14T09:51:47.259Z,99.90
2018-04-14T09:54:15.922Z,99.90
2018-04-14T09:56:44.546Z,99.90
2018-04-14T09:59:13.171Z,99.90
2018-04-14T10:01:47.927Z,99.90
2018-04-14T10:04:16.610Z,99.90
2018-04-14T10:06:45.218Z,99.90
2018-04-14T10:09:13.911Z,99.90
2018-04-14T10:11:42.574Z,99.90
2018-04-14T10:14:12.134Z,99.90
2018-04-14T10:16:42.131Z,99.90
2018-04-14T10:19:11.575Z,99.90
2018-04-14T10:21:40.176Z,99.90
2018-04-14T10:24:09.539Z,99.90
2018-04-14T10:26:38.193Z,99.90
2018-04-14T10:29:06.822Z,99.90
2018-04-14T10:31:45.667Z,99.90
2018-04-14T10:34:14.263Z,99.90
2018-04-14T10:39:37.330Z,99.90
2018-04-14T10:42:05.968Z,99.90
2018-04-14T10:44:34.581Z,99.90
2018-04-14T10:47:03.203Z,99.90
2018-04-14T10:49:31.854Z,99.90
2018-04-14T10:52:00.444Z,99.90
2018-04-14T10:54:29.099Z,99.90
2018-04-14T10:57:10.423Z,99.90
2018-04-14T10:59:42.202Z,97.70
2018-04-14T11:02:18.480Z,99.90
2018-04-14T11:04:51.235Z,94.20
2018-04-14T11:07:23.787Z,93.90
2018-04-14T11:09:52.443Z,92.00
2018-04-14T11:12:23.261Z,91.40
2018-04-14T11:14:51.922Z,88.40
2018-04-14T11:17:20.564Z,80.00
2018-04-14T11:20:11.411Z,87.40
2018-04-14T11:22:40.027Z,80.30
2018-04-14T11:25:08.708Z,85.20
2018-04-14T11:27:37.369Z,77.60
2018-04-14T11:30:06.117Z,75.50
2018-04-14T11:32:35.502Z,64.30
2018-04-14T11:37:34.841Z,68.40
2018-04-14T11:40:03.477Z,66.10
2018-04-14T11:42:32.119Z,61.70
2018-04-14T11:45:01.501Z,58.80
2018-04-14T11:47:30.128Z,59.20
2018-04-14T11:54:59.231Z,49.80
2018-04-14T11:57:29.959Z,49.20
2018-04-14T11:59:58.588Z,47.70
2018-04-14T12:02:27.180Z,43.00
2018-04-14T12:04:55.775Z,45.80
2018-04-14T12:07:24.990Z,47.30
2018-04-14T12:09:57.022Z,47.20
2018-04-14T12:12:25.667Z,46.50
2018-04-14T12:14:54.080Z,42.90
2018-04-14T12:17:23.571Z,40.30
2018-04-14T12:19:58.327Z,40.40
2018-04-14T12:22:28.543Z,37.50
2018-04-14T12:25:01.226Z,34.50
2018-04-14T12:29:59.471Z,35.90
2018-04-14T12:32:41.575Z,34.50
2018-04-14T12:35:10.186Z,33.30
2018-04-14T12:43:25.280Z,33.20
2018-04-14T12:45:53.875Z,34.20
2018-04-14T12:48:22.611Z,33.90
2018-04-14T12:50:51.287Z,31.50
2018-04-14T12:53:19.870Z,33.40
2018-04-14T12:55:48.442Z,32.00
2018-04-14T12:58:17.148Z,32.70
2018-04-14T13:00:46.501Z,34.30
2018-04-14T13:03:15.090Z,34.30
2018-04-14T13:05:43.743Z,31.70
2018-04-14T13:08:13.151Z,31.80
2018-04-14T13:10:41.745Z,31.80
2018-04-14T13:13:10.362Z,32.70
2018-04-14T13:15:38.986Z,34.50
2018-04-14T13:18:07.598Z,33.90
2018-04-14T13:20:36.987Z,32.50
2018-04-14T13:23:09.444Z,32.40
2018-04-14T13:25:38.051Z,30.80
2018-04-14T13:28:15.131Z,32.00
2018-04-14T13:30:43.753Z,31.70
2018-04-14T13:33:12.395Z,32.00
2018-04-14T13:35:40.971Z,32.40
2018-04-14T13:38:09.600Z,33.60
2018-04-14T13:40:38.220Z,34.30
2018-04-14T13:43:06.861Z,35.20
2018-04-14T13:48:34.351Z,33.90
2018-04-14T13:51:03.827Z,31.70
2018-04-14T13:53:32.459Z,33.60
2018-04-14T13:56:00.910Z,30.70
2018-04-14T13:58:37.157Z,31.10
2018-04-14T14:01:05.854Z,31.80
2018-04-14T14:12:35.193Z,31.50
2018-04-14T14:15:03.829Z,31.20
2018-04-14T14:17:33.040Z,30.50
2018-04-14T14:20:02.428Z,31.00
2018-04-14T14:22:31.028Z,30.90
2018-04-14T14:25:00.449Z,30.80
2018-04-14T14:27:29.281Z,30.80
2018-04-14T14:29:57.918Z,31.70
2018-04-14T14:32:27.718Z,33.00
2018-04-14T14:34:56.318Z,33.00
2018-04-14T14:37:27.138Z,34.50
2018-04-14T14:39:55.834Z,34.50
2018-04-14T14:42:24.427Z,34.60
2018-04-14T14:44:53.809Z,33.40
2018-04-14T14:47:37.541Z,33.40
2018-04-14T14:50:11.818Z,32.20
2018-04-14T14:52:40.595Z,33.00
2018-04-14T14:55:09.338Z,32.80
2018-04-14T14:57:38.045Z,33.70
2018-04-14T15:00:06.684Z,32.90
2018-04-14T15:02:35.415Z,33.60
2018-04-14T15:05:04.225Z,34.30
2018-04-14T15:07:33.082Z,33.60
2018-04-14T15:10:01.799Z,33.20
2018-04-14T15:12:30.437Z,32.50
2018-04-14T15:14:59.244Z,32.70
2018-04-14T15:17:27.908Z,34.70
2018-04-14T15:19:56.719Z,36.50
2018-04-14T15:22:26.436Z,37.10
2018-04-14T15:25:10.752Z,36.90
2018-04-14T15:27:49.041Z,38.00
2018-04-14T15:30:17.764Z,38.20
2018-04-14T15:32:46.610Z,38.60
2018-04-14T15:35:15.259Z,40.00
2018-04-14T15:37:43.943Z,40.20
2018-04-14T15:40:12.590Z,40.80
2018-04-14T15:42:42.031Z,40.50
2018-04-14T15:45:22.971Z,40.50
2018-04-14T15:47:51.970Z,41.20
2018-04-14T15:50:20.684Z,41.90
2018-04-14T15:52:49.448Z,42.90
2018-04-14T15:55:18.950Z,42.40
2018-04-14T15:57:47.644Z,42.40
2018-04-14T16:00:17.048Z,42.80
2018-04-14T16:02:46.459Z,43.20
2018-04-14T16:05:15.905Z,43.70
2018-04-14T16:07:44.653Z,43.70
2018-04-14T16:10:13.259Z,44.30
2018-04-14T16:12:41.903Z,44.10
2018-04-14T16:15:21.387Z,43.90
2018-04-14T16:17:50.861Z,45.40
2018-04-14T16:20:28.984Z,45.30
2018-04-14T16:22:58.393Z,48.70
2018-04-14T16:25:47.846Z,49.80
2018-04-14T16:28:16.478Z,49.70
2018-04-14T16:30:57.025Z,50.50
2018-04-14T16:33:26.431Z,53.40
2018-04-14T16:35:55.875Z,53.40
2018-04-14T16:38:24.500Z,53.30
2018-04-14T16:40:53.138Z,57.20
2018-04-14T16:43:21.826Z,64.90
2018-04-14T16:45:50.438Z,71.40
2018-04-14T16:48:19.068Z,78.70
2018-04-14T16:50:59.979Z,93.40
2018-04-14T16:53:28.615Z,93.40
2018-04-14T16:56:01.847Z,99.90
2018-04-14T16:58:31.222Z,99.90
2018-04-14T17:01:03.507Z,99.90
2018-04-14T17:03:32.183Z,99.90
2018-04-14T17:08:55.271Z,99.90
2018-04-14T17:11:23.929Z,99.90
2018-04-14T17:13:52.581Z,99.90
2018-04-14T17:16:21.182Z,99.90
2018-04-14T17:18:49.797Z,99.90
2018-04-14T17:21:18.385Z,99.90
2018-04-14T17:23:46.989Z,99.90
2018-04-14T17:26:15.575Z,99.90
2018-04-14T17:28:44.225Z,99.90
2018-04-14T17:31:12.914Z,99.90
2018-04-14T17:33:41.541Z,99.90
2018-04-14T17:36:10.134Z,99.90
2018-04-14T17:38:39.555Z,99.90
2018-04-14T17:41:08.965Z,99.90
2018-04-14T17:43:37.568Z,99.90
2018-04-14T17:46:06.201Z,99.90
2018-04-14T17:48:34.854Z,99.90
2018-04-14T17:51:03.593Z,99.90
2018-04-14T17:53:32.253Z,99.90
2018-04-14T17:56:00.903Z,99.90
2018-04-14T17:58:30.037Z,99.90
2018-04-14T18:00:59.347Z,99.90
2018-04-14T18:03:27.761Z,99.90
2018-04-14T18:05:57.154Z,99.90
2018-04-14T18:08:36.097Z,99.90
2018-04-14T18:11:05.505Z,99.90
2018-04-14T18:13:46.743Z,99.90
2018-04-14T18:16:15.296Z,99.90
2018-04-14T18:18:48.871Z,99.90
2018-04-14T18:21:18.315Z,99.90
2018-04-14T18:23:47.042Z,99.90
2018-04-14T18:26:15.710Z,99.90
2018-04-14T18:28:45.308Z,99.90
2018-04-14T18:31:13.948Z,99.90
2018-04-14T18:33:42.656Z,99.90
2018-04-14T18:36:11.315Z,99.90
2018-04-14T18:38:40.186Z,99.90
2018-04-14T18:41:08.945Z,99.90
2018-04-14T18:43:37.650Z,99.90
2018-04-14T18:46:06.264Z,99.90
2018-04-14T18:48:34.884Z,99.90
2018-04-14T18:51:03.550Z,99.90
2018-04-14T18:53:32.211Z,99.90
2018-04-14T18:56:00.862Z,99.90
2018-04-14T18:58:29.514Z,99.90
2018-04-14T19:01:05.803Z,99.90
2018-04-14T19:03:34.483Z,99.90
2018-04-14T19:06:03.913Z,99.90
2018-04-14T19:08:38.432Z,99.90
2018-04-14T19:11:07.085Z,99.90
2018-04-14T19:13:35.785Z,99.90
2018-04-14T19:16:04.429Z,99.90
2018-04-14T19:18:33.059Z,99.90
2018-04-14T19:21:03.691Z,99.90
2018-04-14T19:23:32.333Z,99.90
2018-04-14T19:26:00.989Z,99.90
2018-04-14T19:28:29.696Z,99.90
2018-04-14T19:30:58.313Z,99.90
2018-04-14T19:33:26.962Z,99.90
2018-04-14T19:35:55.684Z,99.90
2018-04-14T19:38:25.107Z,99.90
2018-04-14T19:40:59.982Z,99.90
2018-04-14T19:43:28.643Z,99.90
2018-04-14T19:46:02.046Z,99.90
2018-04-14T19:48:30.713Z,99.90
2018-04-14T19:50:59.450Z,99.90
2018-04-14T19:53:28.107Z,99.90
2018-04-14T19:55:57.063Z,99.90
2018-04-14T19:58:25.688Z,99.90
2018-04-14T20:00:54.383Z,99.90
2018-04-14T20:03:23.751Z,99.90
2018-04-14T20:05:52.389Z,99.90
2018-04-14T20:08:21.063Z,99.90
2018-04-14T20:10:49.721Z,99.90
2018-04-14T20:13:18.380Z,99.90
2018-04-14T20:15:47.581Z,99.90
2018-04-14T20:18:16.209Z,99.90
2018-04-14T20:20:44.879Z,99.90
2018-04-14T20:23:13.534Z,99.90
2018-04-14T20:25:42.136Z,99.90
2018-04-14T20:28:23.027Z,99.90
2018-04-14T20:30:51.663Z,99.90
2018-04-14T20:33:21.106Z,99.90
2018-04-14T20:35:49.725Z,99.90
2018-04-14T20:38:18.351Z,99.90
2018-04-14T20:40:47.001Z,99.90
2018-04-14T20:43:15.635Z,99.90
2018-04-14T20:45:44.463Z,99.90
2018-04-14T20:48:13.084Z,99.90
2018-04-14T20:50:41.700Z,99.90
2018-04-14T20:53:10.309Z,99.90
2018-04-14T20:55:38.979Z,99.90
2018-04-14T20:58:07.624Z,99.90
2018-04-14T21:00:36.212Z,99.90
2018-04-14T21:03:04.966Z,99.90
2018-04-14T21:05:33.609Z,99.90
2018-04-14T21:08:03.039Z,99.90
2018-04-14T21:10:31.676Z,99.90
2018-04-14T21:13:00.327Z,99.90
2018-04-14T21:15:28.980Z,99.90
2018-04-14T21:17:58.371Z,99.90
2018-04-14T21:20:26.981Z,99.90
2018-04-14T21:22:57.410Z,99.90
2018-04-14T21:25:26.083Z,99.90
2018-04-14T21:27:55.276Z,99.90
2018-04-14T21:30:24.687Z,99.90
2018-04-14T21:32:54.143Z,99.90
2018-04-14T21:35:22.882Z,99.90
2018-04-14T21:37:52.343Z,99.90
2018-04-14T21:40:20.964Z,99.90
2018-04-14T21:42:49.610Z,99.90
2018-04-14T21:45:18.269Z,99.90
2018-04-14T21:47:46.918Z,99.90
2018-04-14T21:50:15.530Z,99.90
2018-04-14T21:52:44.895Z,99.90
2018-04-14T21:55:13.542Z,99.90
2018-04-14T21:57:42.165Z,99.90
2018-04-14T22:00:10.207Z,99.90
2018-04-14T22:02:38.826Z,99.90
2018-04-14T22:05:07.451Z,99.90
2018-04-14T22:07:36.835Z,99.90
2018-04-14T22:10:06.528Z,99.90
2018-04-14T22:12:35.241Z,99.90
2018-04-14T22:15:03.567Z,99.90
2018-04-14T22:17:32.166Z,99.90
2018-04-14T22:20:00.852Z,99.90
2018-04-14T22:22:29.479Z,99.90
2018-04-14T22:24:58.093Z,99.90
2018-04-14T22:27:27.471Z,99.90
2018-04-14T22:29:56.056Z,99.90
2018-04-14T22:32:35.094Z,99.90
2018-04-14T22:35:03.710Z,99.90
2018-04-14T22:37:36.891Z,99.90
2018-04-14T22:40:05.682Z,99.90
2018-04-14T22:42:45.446Z,99.90
2018-04-14T22:45:14.099Z,99.90
2018-04-14T22:47:42.683Z,99.90
2018-04-14T22:50:22.045Z,99.90
2018-04-14T22:52:51.396Z,99.90
2018-04-14T22:55:20.035Z,99.90
2018-04-14T22:57:48.642Z,99.90
2018-04-14T23:00:17.553Z,99.90
2018-04-14T23:02:46.193Z,99.90
2018-04-14T23:05:14.786Z,99.90
2018-04-14T23:07:43.414Z,99.90
2018-04-14T23:10:11.979Z,99.90
2018-04-14T23:12:40.586Z,99.90
2018-04-14T23:15:09.170Z,99.90
2018-04-14T23:17:37.825Z,99.90
2018-04-14T23:20:07.209Z,99.90
2018-04-14T23:22:35.811Z,99.90
2018-04-14T23:25:05.239Z,99.90
2018-04-14T23:27:33.663Z,99.90
2018-04-14T23:30:02.267Z,99.90
2018-04-14T23:32:30.846Z,99.90
2018-04-14T23:34:59.479Z,99.90
2018-04-14T23:37:28.105Z,99.90
2018-04-14T23:39:56.703Z,99.90
2018-04-14T23:42:25.306Z,99.90
2018-04-14T23:44:54.722Z,99.90
2018-04-14T23:47:24.141Z,99.90
2018-04-14T23:49:55.560Z,99.90
2018-04-14T23:52:24.183Z,99.90
2018-04-14T23:54:57.169Z,99.90
2018-04-14T23:57:25.785Z,99.90
2018-04-14T23:59:54.390Z,99.90
